Hildegaard — C6QU3 — position and weather

sailwx.info

Track history (hours):
 
Tides and Currents Weather Stations Pressure Air Temp Water Temp Dewpoint Dewpoint Depression Visibility Wind Speed Wind Dir Waves Ship Positions

Hildegaard

Last reported at 2015-May-06 11:23 UTC. Time now 2015-May-06 12:30 UTC.
Position N 53°46' E 000°31'.

Length 248 m; draft 12.2 m.

Type: Ship (hazmat cat A). MMSI: 308574000.

Date/timePositionNaut miles runAvg speedWind from/ knotsBaromVisibWave heightAir tempDewpointWater temp
2015-May-06 11:23N 53°46' E 000°31'0 0.0
2015-May-06 10:26N 53°46' E 000°31'0 0.0
2015-May-06 09:26N 53°46' E 000°31'0 0.0
2015-May-06 08:32N 53°46' E 000°31'0 0.0
2015-May-06 07:29N 53°46' E 000°31'0 0.2
2015-May-06 06:29N 53°46' E 000°31'0 0.1
2015-May-06 05:17N 53°46' E 000°31'0 0.0
2015-May-06 04:29N 53°46' E 000°31'0 0.2
2015-May-06 03:32N 53°46' E 000°31'0 0.1
2015-May-06 02:23N 53°46' E 000°31'0 0.0
2015-May-06 01:32N 53°46' E 000°31'0 0.0
2015-May-06 00:23N 53°46' E 000°31'0 0.0
2015-May-05 23:32N 53°46' E 000°31'0 0.0
2015-May-05 22:32N 53°46' E 000°31'0 0.0
2015-May-05 21:23N 53°46' E 000°31'0 0.0
2015-May-05 20:23N 53°46' E 000°31'0 0.1
2015-May-05 19:29N 53°46' E 000°31'0 0.1
2015-May-05 18:32N 53°46' E 000°32'0 0.2
2015-May-05 17:32N 53°46' E 000°32'0 0.0
2015-May-05 16:29N 53°46' E 000°32'0 0.1
2015-May-05 15:26N 53°46' E 000°32'0 0.1
2015-May-05 14:32N 53°46' E 000°32'0 0.0
2015-May-05 13:29N 53°46' E 000°32'0 0.1
2015-May-05 12:20N 53°46' E 000°31'0 0.1
2015-May-05 11:29N 53°46' E 000°31'0 0.0
2015-May-05 10:32N 53°46' E 000°31'0 0.0
2015-May-05 09:32N 53°46' E 000°31'0 0.0
2015-May-05 08:32N 53°46' E 000°31'0 0.1
2015-May-05 06:23N 53°46' E 000°31'0 0.0
2015-May-05 05:26N 53°46' E 000°31'0 0.0
2015-May-05 04:23N 53°46' E 000°31'0 0.0
2015-May-05 03:29N 53°46' E 000°31'0 0.1
2015-May-05 02:11N 53°46' E 000°31'0 0.1
2015-May-05 01:29N 53°46' E 000°31'0 0.1
2015-May-05 00:32N 53°46' E 000°31'0 0.0
2015-May-04 23:32N 53°46' E 000°31'0 0.5
2015-May-04 22:33N 53°46' E 000°31'1010.4
2015-May-04 21:33N 53°37' E 000°21'9 8.9
2015-May-04 20:30N 53°32' E 000°07'0 0.2
2015-May-04 19:30N 53°32' E 000°07'0 0.0
2015-May-04 18:21N 53°32' E 000°07'0 0.1
2015-May-04 17:33N 53°32' E 000°07'0 0.0
2015-May-04 16:33N 53°32' E 000°07'0 0.0
2015-May-04 15:27N 53°32' E 000°07'0 0.0
2015-May-04 14:27N 53°32' E 000°07'0 0.1
2015-May-04 12:33N 53°32' E 000°07'0 0.1
2015-May-04 11:33N 53°32' E 000°07'0 0.0
2015-May-04 10:30N 53°32' E 000°07'0 0.0
2015-May-04 09:30N 53°32' E 000°07'0 0.0
2015-May-04 08:30N 53°32' E 000°07'0 0.0
2015-May-04 07:33N 53°32' E 000°07'0 0.1
2015-May-04 06:34N 53°32' E 000°07'0 0.2
2015-May-04 05:30N 53°32' E 000°07'0 0.0
2015-May-04 04:04N 53°32' E 000°07'0 0.0
2015-May-04 03:24N 53°32' E 000°07'0 0.0
2015-May-04 02:34N 53°32' E 000°07'0 0.1
2015-May-04 00:30N 53°32' E 000°07'0 0.3
2015-May-03 23:27N 53°32' E 000°07'0 0.0
2015-May-03 22:27N 53°32' E 000°07'0 0.0
2015-May-03 21:33N 53°32' E 000°07'0 0.0
2015-May-03 20:30N 53°32' E 000°07'0 0.0
2015-May-03 19:33N 53°32' E 000°07'0 0.1
2015-May-03 18:33N 53°32' E 000°07'0 0.2
2015-May-03 17:33N 53°32' E 000°07'5 5.1
2015-May-03 16:33N 53°34' E 000°15'7 7.1
2015-May-03 15:33N 53°40' E 000°22'1 1.2
2015-May-03 14:33N 53°41' E 000°22'2 2.3
2015-May-03 13:29N 53°43' E 000°21'0 0.2
2015-May-03 12:32N 53°43' E 000°20'0 0.1
2015-May-03 11:32N 53°44' E 000°20'0 0.1
2015-May-03 10:29N 53°44' E 000°21'0 0.0
2015-May-03 09:32N 53°44' E 000°21'0 0.0
2015-May-03 08:29N 53°44' E 000°21'0 0.1
2015-May-03 07:23N 53°43' E 000°21'0 0.1
2015-May-03 06:32N 53°43' E 000°20'0 0.2
2015-May-03 05:09N 53°43' E 000°21'0 0.1
2015-May-03 04:08N 53°43' E 000°21'0 0.0
2015-May-03 03:11N 53°43' E 000°21'0 0.0
2015-May-03 02:08N 53°43' E 000°21'0 0.2
2015-May-03 01:26N 53°43' E 000°21'0 0.2
2015-May-03 00:29N 53°43' E 000°20'0 0.1
2015-May-02 23:29N 53°44' E 000°21'0 0.1
2015-May-02 22:29N 53°44' E 000°21'0 0.0
2015-May-02 21:29N 53°44' E 000°21'0 0.0
2015-May-02 20:20N 53°44' E 000°21'0 0.1
2015-May-02 19:20N 53°44' E 000°21'0 0.2
2015-May-02 18:32N 53°43' E 000°21'0 0.1
2015-May-02 17:32N 53°43' E 000°21'0 0.1
2015-May-02 16:32N 53°43' E 000°21'0 0.0
2015-May-02 15:32N 53°43' E 000°21'0 0.0
2015-May-02 14:20N 53°43' E 000°21'0 0.0
2015-May-02 13:23N 53°43' E 000°21'0 0.1
2015-May-02 12:20N 53°43' E 000°21'0 0.2
2015-May-02 11:23N 53°43' E 000°21'0 0.1
2015-May-02 10:08N 53°44' E 000°21'0 0.0
2015-May-02 09:32N 53°44' E 000°21'0 0.0
2015-May-02 08:29N 53°44' E 000°21'0 0.0
2015-May-02 07:17N 53°44' E 000°21'0 0.2
2015-May-02 06:32N 53°43' E 000°21'0 0.2
2015-May-02 05:29N 53°43' E 000°21'0 0.0
2015-May-02 04:29N 53°43' E 000°21'0 0.0
2015-May-02 03:32N 53°43' E 000°21'0 0.0
2015-May-02 02:23N 53°43' E 000°21'0 0.0
2015-May-02 01:32N 53°43' E 000°21'0 0.0
2015-May-02 00:23N 53°43' E 000°21'0 0.1
2015-May-01 23:26N 53°43' E 000°21'0 0.2
2015-May-01 22:26N 53°44' E 000°21'0 0.0
2015-May-01 21:23N 53°44' E 000°21'0 0.0
2015-May-01 20:11N 53°44' E 000°21'0 0.1
2015-May-01 18:29N 53°43' E 000°21'0 0.2
2015-May-01 17:32N 53°43' E 000°21'0 0.0
2015-May-01 16:32N 53°43' E 000°21'0 0.0
2015-May-01 15:32N 53°43' E 000°21'0 0.0
2015-May-01 14:29N 53°43' E 000°21'0 0.0
2015-May-01 13:20N 53°43' E 000°21'0 0.0
2015-May-01 12:32N 53°43' E 000°21'0 0.0
2015-May-01 11:23N 53°43' E 000°21'0 0.2
2015-May-01 10:11N 53°43' E 000°21'0 0.1
2015-May-01 09:26N 53°44' E 000°21'0 0.0
2015-May-01 08:26N 53°44' E 000°21'0 0.0
2015-May-01 07:23N 53°44' E 000°21'0 0.3
2015-May-01 06:23N 53°43' E 000°20'0 0.2
2015-May-01 05:26N 53°43' E 000°21'0 0.0
2015-May-01 04:26N 53°43' E 000°21'0 0.0
2015-May-01 03:32N 53°43' E 000°21'0 0.0
2015-May-01 02:29N 53°43' E 000°21'0 0.0
2015-May-01 01:05N 53°43' E 000°21'0 0.0
2015-May-01 00:17N 53°43' E 000°21'0 0.0
2015-Apr-30 23:32N 53°43' E 000°21'0 0.0
2015-Apr-30 22:32N 53°43' E 000°21'0 0.3
2015-Apr-30 21:32N 53°43' E 000°21'0 0.0
2015-Apr-30 20:23N 53°44' E 000°21'0 0.0
2015-Apr-30 19:26N 53°44' E 000°21'0 0.2
2015-Apr-30 18:32N 53°43' E 000°21'0 0.1
2015-Apr-30 17:23N 53°43' E 000°21'0 0.0
2015-Apr-30 16:29N 53°43' E 000°21'0 0.0
2015-Apr-30 15:29N 53°43' E 000°21'0 0.0
2015-Apr-30 14:17N 53°43' E 000°21'0 0.0
2015-Apr-30 13:29N 53°43' E 000°21'0 0.0
2015-Apr-30 12:29N 53°43' E 000°21'0 0.0
2015-Apr-30 11:32N 53°43' E 000°21'0 0.1
2015-Apr-30 10:29N 53°43' E 000°21'0 0.2
2015-Apr-30 09:32N 53°43' E 000°21'0 0.1
2015-Apr-30 08:32N 53°44' E 000°21'0 0.0
2015-Apr-30 06:11N 53°44' E 000°21'0 0.0
2015-Apr-30 05:29N 53°44' E 000°21'0 0.1
2015-Apr-30 04:29N 53°43' E 000°21'0 0.2
2015-Apr-30 03:29N 53°43' E 000°21'0 0.1
2015-Apr-30 02:26N 53°43' E 000°21'0 0.0
2015-Apr-30 01:32N 53°43' E 000°21'0 0.0
2015-Apr-30 00:26N 53°43' E 000°21'0 0.0
2015-Apr-29 23:29N 53°43' E 000°21'0 0.2
2015-Apr-29 22:29N 53°43' E 000°21'0 0.1
2015-Apr-29 21:26N 53°44' E 000°21'0 0.0
2015-Apr-29 20:32N 53°43' E 000°21'0 0.0
2015-Apr-29 19:32N 53°43' E 000°21'0 0.0
2015-Apr-29 18:32N 53°43' E 000°21'0 0.0
2015-Apr-29 17:26N 53°43' E 000°21'0 0.1
2015-Apr-29 16:32N 53°43' E 000°21'0 0.1
2015-Apr-29 15:32N 53°43' E 000°21'0 0.0
2015-Apr-29 14:11N 53°43' E 000°21'0 0.1
2015-Apr-29 13:29N 53°43' E 000°21'0 0.0
2015-Apr-29 12:29N 53°43' E 000°21'0 0.0
2015-Apr-29 11:32N 53°43' E 000°21'0 0.2
2015-Apr-29 10:32N 53°43' E 000°21'0 0.1
2015-Apr-29 09:32N 53°44' E 000°21'0 0.1
2015-Apr-29 08:29N 53°44' E 000°21'0 0.0
2015-Apr-29 07:29N 53°44' E 000°21'0 0.0
2015-Apr-29 06:32N 53°44' E 000°21'0 0.0
2015-Apr-29 05:23N 53°44' E 000°21'0 0.0
2015-Apr-29 04:32N 53°44' E 000°21'0 0.1
2015-Apr-29 03:20N 53°43' E 000°21'0 0.1
2015-Apr-29 02:05N 53°43' E 000°21'0 0.1
2015-Apr-29 01:26N 53°43' E 000°21'0 0.0
2015-Apr-29 00:20N 53°43' E 000°21'0 0.0
2015-Apr-28 23:26N 53°43' E 000°21'0 0.0
2015-Apr-28 22:11N 53°43' E 000°21'0 0.2
2015-Apr-28 21:32N 53°43' E 000°21'0 0.1
2015-Apr-28 20:20N 53°44' E 000°21'0 0.0
2015-Apr-28 19:32N 53°44' E 000°21'0 0.0
2015-Apr-28 18:29N 53°44' E 000°21'0 0.1
2015-Apr-28 17:29N 53°44' E 000°21'0 0.1
2015-Apr-28 16:26N 53°43' E 000°21'0 0.1
2015-Apr-28 15:32N 53°43' E 000°21'0 0.1
2015-Apr-28 14:26N 53°43' E 000°21'0 0.0
2015-Apr-28 13:23N 53°43' E 000°21'0 0.1
2015-Apr-28 12:23N 53°43' E 000°21'0 0.0
2015-Apr-28 11:26N 53°43' E 000°21'0 0.1
2015-Apr-28 10:29N 53°43' E 000°21'0 0.1
2015-Apr-28 09:32N 53°43' E 000°21'0 0.1
2015-Apr-28 08:32N 53°43' E 000°21'0 0.1
2015-Apr-28 07:26N 53°43' E 000°21'0 0.0
2015-Apr-28 06:32N 53°44' E 000°21'0 0.0
2015-Apr-28 05:20N 53°44' E 000°21'0 0.0
2015-Apr-28 04:32N 53°43' E 000°21'0 0.1
2015-Apr-28 02:32N 53°43' E 000°21'0 0.1
2015-Apr-28 01:23N 53°43' E 000°21'0 0.0
2015-Apr-28 00:32N 53°43' E 000°21'0 0.0
2015-Apr-27 23:23N 53°43' E 000°21'0 0.1
2015-Apr-27 22:26N 53°43' E 000°21'0 0.2
2015-Apr-27 21:26N 53°43' E 000°21'0 0.1
2015-Apr-27 20:23N 53°44' E 000°21'0 0.0
2015-Apr-27 19:29N 53°44' E 000°21'0 0.0
2015-Apr-27 18:26N 53°44' E 000°21'0 0.0
2015-Apr-27 17:32N 53°44' E 000°21'0 0.0
2015-Apr-27 16:32N 53°44' E 000°21'0 0.1
2015-Apr-27 15:32N 53°43' E 000°21'0 0.2
2015-Apr-27 14:20N 53°43' E 000°21'0 0.0
2015-Apr-27 13:05N 53°43' E 000°21'0 0.0
2015-Apr-27 12:32N 53°43' E 000°21'0 0.0
2015-Apr-27 11:32N 53°43' E 000°21'0 0.0
2015-Apr-27 09:11N 53°43' E 000°21'0 0.0
2015-Apr-27 08:26N 53°43' E 000°21'0 0.0
2015-Apr-27 07:26N 53°43' E 000°21'0 0.0
2015-Apr-27 06:14N 53°43' E 000°21'0 0.2
2015-Apr-27 05:23N 53°43' E 000°21'0 0.0
2015-Apr-27 04:32N 53°43' E 000°21'0 0.1
2015-Apr-27 03:29N 53°43' E 000°21'0 0.0
2015-Apr-27 02:32N 53°43' E 000°21'0 0.0
2015-Apr-27 01:32N 53°43' E 000°21'0 0.0
2015-Apr-27 00:32N 53°43' E 000°21'0 0.0
2015-Apr-26 23:32N 53°43' E 000°21'0 0.0
2015-Apr-26 22:17N 53°43' E 000°21'0 0.0
2015-Apr-26 21:32N 53°43' E 000°21'0 0.0
2015-Apr-26 20:08N 53°43' E 000°21'0 0.0
2015-Apr-26 19:26N 53°43' E 000°21'0 0.2
2015-Apr-26 18:23N 53°43' E 000°21'0 0.1
2015-Apr-26 17:26N 53°44' E 000°21'0 0.0
2015-Apr-26 16:29N 53°44' E 000°21'0 0.0
2015-Apr-26 15:29N 53°44' E 000°21'0 0.1
2015-Apr-26 14:14N 53°43' E 000°21'0 0.3
2015-Apr-26 13:32N 53°43' E 000°21'0 0.1
2015-Apr-26 12:32N 53°43' E 000°21'0 0.0
2015-Apr-26 11:32N 53°43' E 000°21'  
Track history (hours):
 
Tides and Currents Weather Stations Pressure Air Temp Water Temp Dewpoint Dewpoint Depression Visibility Wind Speed Wind Dir Waves Ship Positions

Hildegaard

Last reported at 2015-May-06 11:23 UTC. Time now 2015-May-06 12:30 UTC.
Position N 53°46' E 000°31'.

Length 248 m; draft 12.2 m.

Type: Ship (hazmat cat A). MMSI: 308574000.

Date/timePositionNaut miles runAvg speedWind from/ knotsBaromVisibWave heightAir tempDewpointWater temp
2015-May-06 11:23N 53°46' E 000°31'0 0.0
2015-May-06 10:26N 53°46' E 000°31'0 0.0
2015-May-06 09:26N 53°46' E 000°31'0 0.0
2015-May-06 08:32N 53°46' E 000°31'0 0.0
2015-May-06 07:29N 53°46' E 000°31'0 0.2
2015-May-06 06:29N 53°46' E 000°31'0 0.1
2015-May-06 05:17N 53°46' E 000°31'0 0.0
2015-May-06 04:29N 53°46' E 000°31'0 0.2
2015-May-06 03:32N 53°46' E 000°31'0 0.1
2015-May-06 02:23N 53°46' E 000°31'0 0.0
2015-May-06 01:32N 53°46' E 000°31'0 0.0
2015-May-06 00:23N 53°46' E 000°31'0 0.0
2015-May-05 23:32N 53°46' E 000°31'0 0.0
2015-May-05 22:32N 53°46' E 000°31'0 0.0
2015-May-05 21:23N 53°46' E 000°31'0 0.0
2015-May-05 20:23N 53°46' E 000°31'0 0.1
2015-May-05 19:29N 53°46' E 000°31'0 0.1
2015-May-05 18:32N 53°46' E 000°32'0 0.2
2015-May-05 17:32N 53°46' E 000°32'0 0.0
2015-May-05 16:29N 53°46' E 000°32'0 0.1
2015-May-05 15:26N 53°46' E 000°32'0 0.1
2015-May-05 14:32N 53°46' E 000°32'0 0.0
2015-May-05 13:29N 53°46' E 000°32'0 0.1
2015-May-05 12:20N 53°46' E 000°31'0 0.1
2015-May-05 11:29N 53°46' E 000°31'0 0.0
2015-May-05 10:32N 53°46' E 000°31'0 0.0
2015-May-05 09:32N 53°46' E 000°31'0 0.0
2015-May-05 08:32N 53°46' E 000°31'0 0.1
2015-May-05 06:23N 53°46' E 000°31'0 0.0
2015-May-05 05:26N 53°46' E 000°31'0 0.0
2015-May-05 04:23N 53°46' E 000°31'0 0.0
2015-May-05 03:29N 53°46' E 000°31'0 0.1
2015-May-05 02:11N 53°46' E 000°31'0 0.1
2015-May-05 01:29N 53°46' E 000°31'0 0.1
2015-May-05 00:32N 53°46' E 000°31'0 0.0
2015-May-04 23:32N 53°46' E 000°31'0 0.5
2015-May-04 22:33N 53°46' E 000°31'1010.4
2015-May-04 21:33N 53°37' E 000°21'9 8.9
2015-May-04 20:30N 53°32' E 000°07'0 0.2
2015-May-04 19:30N 53°32' E 000°07'0 0.0
2015-May-04 18:21N 53°32' E 000°07'0 0.1
2015-May-04 17:33N 53°32' E 000°07'0 0.0
2015-May-04 16:33N 53°32' E 000°07'0 0.0
2015-May-04 15:27N 53°32' E 000°07'0 0.0
2015-May-04 14:27N 53°32' E 000°07'0 0.1
2015-May-04 12:33N 53°32' E 000°07'0 0.1
2015-May-04 11:33N 53°32' E 000°07'0 0.0
2015-May-04 10:30N 53°32' E 000°07'0 0.0
2015-May-04 09:30N 53°32' E 000°07'0 0.0
2015-May-04 08:30N 53°32' E 000°07'0 0.0
2015-May-04 07:33N 53°32' E 000°07'0 0.1
2015-May-04 06:34N 53°32' E 000°07'0 0.2
2015-May-04 05:30N 53°32' E 000°07'0 0.0
2015-May-04 04:04N 53°32' E 000°07'0 0.0
2015-May-04 03:24N 53°32' E 000°07'0 0.0
2015-May-04 02:34N 53°32' E 000°07'0 0.1
2015-May-04 00:30N 53°32' E 000°07'0 0.3
2015-May-03 23:27N 53°32' E 000°07'0 0.0
2015-May-03 22:27N 53°32' E 000°07'0 0.0
2015-May-03 21:33N 53°32' E 000°07'0 0.0
2015-May-03 20:30N 53°32' E 000°07'0 0.0
2015-May-03 19:33N 53°32' E 000°07'0 0.1
2015-May-03 18:33N 53°32' E 000°07'0 0.2
2015-May-03 17:33N 53°32' E 000°07'5 5.1
2015-May-03 16:33N 53°34' E 000°15'7 7.1
2015-May-03 15:33N 53°40' E 000°22'1 1.2
2015-May-03 14:33N 53°41' E 000°22'2 2.3
2015-May-03 13:29N 53°43' E 000°21'0 0.2
2015-May-03 12:32N 53°43' E 000°20'0 0.1
2015-May-03 11:32N 53°44' E 000°20'0 0.1
2015-May-03 10:29N 53°44' E 000°21'0 0.0
2015-May-03 09:32N 53°44' E 000°21'0 0.0
2015-May-03 08:29N 53°44' E 000°21'0 0.1
2015-May-03 07:23N 53°43' E 000°21'0 0.1
2015-May-03 06:32N 53°43' E 000°20'0 0.2
2015-May-03 05:09N 53°43' E 000°21'0 0.1
2015-May-03 04:08N 53°43' E 000°21'0 0.0
2015-May-03 03:11N 53°43' E 000°21'0 0.0
2015-May-03 02:08N 53°43' E 000°21'0 0.2
2015-May-03 01:26N 53°43' E 000°21'0 0.2
2015-May-03 00:29N 53°43' E 000°20'0 0.1
2015-May-02 23:29N 53°44' E 000°21'0 0.1
2015-May-02 22:29N 53°44' E 000°21'0 0.0
2015-May-02 21:29N 53°44' E 000°21'0 0.0
2015-May-02 20:20N 53°44' E 000°21'0 0.1
2015-May-02 19:20N 53°44' E 000°21'0 0.2
2015-May-02 18:32N 53°43' E 000°21'0 0.1
2015-May-02 17:32N 53°43' E 000°21'0 0.1
2015-May-02 16:32N 53°43' E 000°21'0 0.0
2015-May-02 15:32N 53°43' E 000°21'0 0.0
2015-May-02 14:20N 53°43' E 000°21'0 0.0
2015-May-02 13:23N 53°43' E 000°21'0 0.1
2015-May-02 12:20N 53°43' E 000°21'0 0.2
2015-May-02 11:23N 53°43' E 000°21'0 0.1
2015-May-02 10:08N 53°44' E 000°21'0 0.0
2015-May-02 09:32N 53°44' E 000°21'0 0.0
2015-May-02 08:29N 53°44' E 000°21'0 0.0
2015-May-02 07:17N 53°44' E 000°21'0 0.2
2015-May-02 06:32N 53°43' E 000°21'0 0.2
2015-May-02 05:29N 53°43' E 000°21'0 0.0
2015-May-02 04:29N 53°43' E 000°21'0 0.0
2015-May-02 03:32N 53°43' E 000°21'0 0.0
2015-May-02 02:23N 53°43' E 000°21'0 0.0
2015-May-02 01:32N 53°43' E 000°21'0 0.0
2015-May-02 00:23N 53°43' E 000°21'0 0.1
2015-May-01 23:26N 53°43' E 000°21'0 0.2
2015-May-01 22:26N 53°44' E 000°21'0 0.0
2015-May-01 21:23N 53°44' E 000°21'0 0.0
2015-May-01 20:11N 53°44' E 000°21'0 0.1
2015-May-01 18:29N 53°43' E 000°21'0 0.2
2015-May-01 17:32N 53°43' E 000°21'0 0.0
2015-May-01 16:32N 53°43' E 000°21'0 0.0
2015-May-01 15:32N 53°43' E 000°21'0 0.0
2015-May-01 14:29N 53°43' E 000°21'0 0.0
2015-May-01 13:20N 53°43' E 000°21'0 0.0
2015-May-01 12:32N 53°43' E 000°21'0 0.0
2015-May-01 11:23N 53°43' E 000°21'0 0.2
2015-May-01 10:11N 53°43' E 000°21'0 0.1
2015-May-01 09:26N 53°44' E 000°21'0 0.0
2015-May-01 08:26N 53°44' E 000°21'0 0.0
2015-May-01 07:23N 53°44' E 000°21'0 0.3
2015-May-01 06:23N 53°43' E 000°20'0 0.2
2015-May-01 05:26N 53°43' E 000°21'0 0.0
2015-May-01 04:26N 53°43' E 000°21'0 0.0
2015-May-01 03:32N 53°43' E 000°21'0 0.0
2015-May-01 02:29N 53°43' E 000°21'0 0.0
2015-May-01 01:05N 53°43' E 000°21'0 0.0
2015-May-01 00:17N 53°43' E 000°21'0 0.0
2015-Apr-30 23:32N 53°43' E 000°21'0 0.0
2015-Apr-30 22:32N 53°43' E 000°21'0 0.3
2015-Apr-30 21:32N 53°43' E 000°21'0 0.0
2015-Apr-30 20:23N 53°44' E 000°21'0 0.0
2015-Apr-30 19:26N 53°44' E 000°21'0 0.2
2015-Apr-30 18:32N 53°43' E 000°21'0 0.1
2015-Apr-30 17:23N 53°43' E 000°21'0 0.0
2015-Apr-30 16:29N 53°43' E 000°21'0 0.0
2015-Apr-30 15:29N 53°43' E 000°21'0 0.0
2015-Apr-30 14:17N 53°43' E 000°21'0 0.0
2015-Apr-30 13:29N 53°43' E 000°21'0 0.0
2015-Apr-30 12:29N 53°43' E 000°21'0 0.0
2015-Apr-30 11:32N 53°43' E 000°21'0 0.1
2015-Apr-30 10:29N 53°43' E 000°21'0 0.2
2015-Apr-30 09:32N 53°43' E 000°21'0 0.1
2015-Apr-30 08:32N 53°44' E 000°21'0 0.0
2015-Apr-30 06:11N 53°44' E 000°21'0 0.0
2015-Apr-30 05:29N 53°44' E 000°21'0 0.1
2015-Apr-30 04:29N 53°43' E 000°21'0 0.2
2015-Apr-30 03:29N 53°43' E 000°21'0 0.1
2015-Apr-30 02:26N 53°43' E 000°21'0 0.0
2015-Apr-30 01:32N 53°43' E 000°21'0 0.0
2015-Apr-30 00:26N 53°43' E 000°21'0 0.0
2015-Apr-29 23:29N 53°43' E 000°21'0 0.2
2015-Apr-29 22:29N 53°43' E 000°21'0 0.1
2015-Apr-29 21:26N 53°44' E 000°21'0 0.0
2015-Apr-29 20:32N 53°43' E 000°21'0 0.0
2015-Apr-29 19:32N 53°43' E 000°21'0 0.0
2015-Apr-29 18:32N 53°43' E 000°21'0 0.0
2015-Apr-29 17:26N 53°43' E 000°21'0 0.1
2015-Apr-29 16:32N 53°43' E 000°21'0 0.1
2015-Apr-29 15:32N 53°43' E 000°21'0 0.0
2015-Apr-29 14:11N 53°43' E 000°21'0 0.1
2015-Apr-29 13:29N 53°43' E 000°21'0 0.0
2015-Apr-29 12:29N 53°43' E 000°21'0 0.0
2015-Apr-29 11:32N 53°43' E 000°21'0 0.2
2015-Apr-29 10:32N 53°43' E 000°21'0 0.1
2015-Apr-29 09:32N 53°44' E 000°21'0 0.1
2015-Apr-29 08:29N 53°44' E 000°21'0 0.0
2015-Apr-29 07:29N 53°44' E 000°21'0 0.0
2015-Apr-29 06:32N 53°44' E 000°21'0 0.0
2015-Apr-29 05:23N 53°44' E 000°21'0 0.0
2015-Apr-29 04:32N 53°44' E 000°21'0 0.1
2015-Apr-29 03:20N 53°43' E 000°21'0 0.1
2015-Apr-29 02:05N 53°43' E 000°21'0 0.1
2015-Apr-29 01:26N 53°43' E 000°21'0 0.0
2015-Apr-29 00:20N 53°43' E 000°21'0 0.0
2015-Apr-28 23:26N 53°43' E 000°21'0 0.0
2015-Apr-28 22:11N 53°43' E 000°21'0 0.2
2015-Apr-28 21:32N 53°43' E 000°21'0 0.1
2015-Apr-28 20:20N 53°44' E 000°21'0 0.0
2015-Apr-28 19:32N 53°44' E 000°21'0 0.0
2015-Apr-28 18:29N 53°44' E 000°21'0 0.1
2015-Apr-28 17:29N 53°44' E 000°21'0 0.1
2015-Apr-28 16:26N 53°43' E 000°21'0 0.1
2015-Apr-28 15:32N 53°43' E 000°21'0 0.1
2015-Apr-28 14:26N 53°43' E 000°21'0 0.0
2015-Apr-28 13:23N 53°43' E 000°21'0 0.1
2015-Apr-28 12:23N 53°43' E 000°21'0 0.0
2015-Apr-28 11:26N 53°43' E 000°21'0 0.1
2015-Apr-28 10:29N 53°43' E 000°21'0 0.1
2015-Apr-28 09:32N 53°43' E 000°21'0 0.1
2015-Apr-28 08:32N 53°43' E 000°21'0 0.1
2015-Apr-28 07:26N 53°43' E 000°21'0 0.0
2015-Apr-28 06:32N 53°44' E 000°21'0 0.0
2015-Apr-28 05:20N 53°44' E 000°21'0 0.0
2015-Apr-28 04:32N 53°43' E 000°21'0 0.1
2015-Apr-28 02:32N 53°43' E 000°21'0 0.1
2015-Apr-28 01:23N 53°43' E 000°21'0 0.0
2015-Apr-28 00:32N 53°43' E 000°21'0 0.0
2015-Apr-27 23:23N 53°43' E 000°21'0 0.1
2015-Apr-27 22:26N 53°43' E 000°21'0 0.2
2015-Apr-27 21:26N 53°43' E 000°21'0 0.1
2015-Apr-27 20:23N 53°44' E 000°21'0 0.0
2015-Apr-27 19:29N 53°44' E 000°21'0 0.0
2015-Apr-27 18:26N 53°44' E 000°21'0 0.0
2015-Apr-27 17:32N 53°44' E 000°21'0 0.0
2015-Apr-27 16:32N 53°44' E 000°21'0 0.1
2015-Apr-27 15:32N 53°43' E 000°21'0 0.2
2015-Apr-27 14:20N 53°43' E 000°21'0 0.0
2015-Apr-27 13:05N 53°43' E 000°21'0 0.0
2015-Apr-27 12:32N 53°43' E 000°21'0 0.0
2015-Apr-27 11:32N 53°43' E 000°21'0 0.0
2015-Apr-27 09:11N 53°43' E 000°21'0 0.0
2015-Apr-27 08:26N 53°43' E 000°21'0 0.0
2015-Apr-27 07:26N 53°43' E 000°21'0 0.0
2015-Apr-27 06:14N 53°43' E 000°21'0 0.2
2015-Apr-27 05:23N 53°43' E 000°21'0 0.0
2015-Apr-27 04:32N 53°43' E 000°21'0 0.1
2015-Apr-27 03:29N 53°43' E 000°21'0 0.0
2015-Apr-27 02:32N 53°43' E 000°21'0 0.0
2015-Apr-27 01:32N 53°43' E 000°21'0 0.0
2015-Apr-27 00:32N 53°43' E 000°21'0 0.0
2015-Apr-26 23:32N 53°43' E 000°21'0 0.0
2015-Apr-26 22:17N 53°43' E 000°21'0 0.0
2015-Apr-26 21:32N 53°43' E 000°21'0 0.0
2015-Apr-26 20:08N 53°43' E 000°21'0 0.0
2015-Apr-26 19:26N 53°43' E 000°21'0 0.2
2015-Apr-26 18:23N 53°43' E 000°21'0 0.1
2015-Apr-26 17:26N 53°44' E 000°21'0 0.0
2015-Apr-26 16:29N 53°44' E 000°21'0 0.0
2015-Apr-26 15:29N 53°44' E 000°21'0 0.1
2015-Apr-26 14:14N 53°43' E 000°21'0 0.3
2015-Apr-26 13:32N 53°43' E 000°21'0 0.1
2015-Apr-26 12:32N 53°43' E 000°21'0 0.0
2015-Apr-26 11:32N 53°43' E 000°21'  

Dump ship's entire track history